Edward G. Pitka Sr Airport Galena US
ICAO: PAGA
IATA:
Category: Medium
Scheduled Services:

Elevation: 153 ft
TransAlt. 18000 ft.

Airport Communications:
AWOS 3:132.525
ANCHORAGE CNTR:127
CTAF:123
FAIRBANKS RDO:122.2
GALENA OPS:39.12
PMSV METRO:134.5

PAGA Zoom In..

If you have problems with the map follow the link
https://www.worldairports.se/pages/airport.php?
ICAO=PAGA

Runways:

(A) RW 06 length 2786 ft width 80 ft
---- / hdg 73

(B) RW 07 length 7249 ft width 150 ft
---- / hdg 72

(C) RW 24 length 2786 ft width 80 ft
---- / hdg 253

(D) RW 25 length 7249 ft width 150 ft
ILS 109.50 / hdg 252

Location; PAGA
Day. 23 / Time. 07.56 Zulu
* Altimeter: 29.51
* Temperature: -01° c. -30.2°f.
* Wind from: 350° Speed 05 kn.
Dewpoint: -02° c.
Visibility: 10 Statute Miles.
Clouds: Few 9000 ft.

PAGA 230756Z AUTO 35005KT 10SM FEW090 M01/M02 A2951 RMK AO2 SLP995 T10111022 FZRANO


Wind From 350°
Speed 05 kn.

 
 
jpsmedia.com for Web Design worldairports.se 2018   terms of use